Airfield :
LOGIN :

Register | Disclaimer

   EN    FR    IT 

 










Legend :    VFR   Marginal VFR   IFR   Intensive IFR   Very Intensive IFR
Visi :
Ceiling :
>= 8 km
>= 3000ft
5 to 8 km
1000 to 3000 ft
1500m to 5 km
500 to 1000 ft
800 to 1500m
200 to 500 ft
< 800m
< 200 ft
Symbols :   Thunderstorms  Fog  Heavy snow  Heavy precipitations  Wind > 20 kt
SIGMETs :     Misc.  Thunderstorms  Icing  Turbulence  Mountain Waves  Volcanic Ashes







- Airport Elevation : 1188 ft


LKLN - Plzen Line

CURRENT METAR :
  • 140315Z AUTO 22013KT 9999 FEW014 BKN021 BKN038 03/01 Q0995

EXPIRED METARs :
  • 140300Z AUTO 21011KT 9999 -RA BKN013 OVC073 03/01 Q0995
  • 140209Z AUTO 22018KT 9999 -RA BKN012 OVC022 03/01 Q0995
  • 140200Z AUTO 22018G28KT 9999 -RA BKN012 BKN022 OVC041 03/01 Q0995
  • 140159Z AUTO 22018G28KT 9999 -RA BKN012 BKN022 OVC041 03/01 Q0995
  • 140148Z AUTO 21016KT 9999 -RA BKN012 BKN039 OVC074 03/02 Q0995
  • 140146Z AUTO 22015G25KT 9999 -RA BKN012 BKN039 OVC074 03/02 Q0995

TAF N/A
No reported NOTAMs for that airfield.



MET'MAP, your aeronautical weather chart ! - Copyright ORBIFLY December 2007 - Disclaimer

ORBIFLY MET'MAP TEAM :

Programming & Development : Alexandra Zaïnal
Concept & Development : Baudouin d'Aumeries
Co-Development & Prog : Marc-Olivier Méhu
Technical & hardware support : Manuel Goepfert

Contact : metmap@orbifly.com




SOURCES & CREDITS :

   NOAA